createdAt,value
2018-12-15T00:00:34.948Z,35.00
2018-12-15T00:01:35.007Z,31.90
2018-12-15T00:02:34.927Z,36.20
2018-12-15T00:03:34.927Z,31.70
2018-12-15T00:04:34.908Z,30.00
2018-12-15T00:05:34.896Z,29.40
2018-12-15T00:06:34.883Z,31.40
2018-12-15T00:07:34.872Z,31.20
2018-12-15T00:08:34.871Z,29.30
2018-12-15T00:09:34.849Z,28.20
2018-12-15T00:10:34.839Z,30.40
2018-12-15T00:11:34.828Z,29.00
2018-12-15T00:12:34.816Z,33.20
2018-12-15T00:13:34.818Z,29.80
2018-12-15T00:14:34.794Z,31.90
2018-12-15T00:15:34.785Z,28.00
2018-12-15T00:16:34.779Z,30.90
2018-12-15T00:17:34.821Z,27.50
2018-12-15T00:18:34.763Z,27.50
2018-12-15T00:19:34.741Z,30.20
2018-12-15T00:20:34.730Z,29.40
2018-12-15T00:21:34.718Z,29.30
2018-12-15T00:22:34.717Z,28.40
2018-12-15T00:23:34.708Z,27.30
2018-12-15T00:24:34.687Z,32.40
2018-12-15T00:25:34.676Z,28.20
2018-12-15T00:26:34.663Z,30.70
2018-12-15T00:27:35.292Z,28.40
2018-12-15T00:28:34.680Z,27.00
2018-12-15T00:29:34.630Z,26.30
2018-12-15T00:30:34.620Z,24.90
2018-12-15T00:31:34.609Z,26.00
2018-12-15T00:32:34.598Z,24.60
2018-12-15T00:33:34.616Z,25.40
2018-12-15T00:34:34.576Z,24.30
2018-12-15T00:35:34.564Z,23.30
2018-12-15T00:36:34.555Z,23.80
2018-12-15T00:37:34.546Z,23.10
2018-12-15T00:38:34.532Z,25.40
2018-12-15T00:39:34.538Z,25.80
2018-12-15T00:40:34.512Z,24.10
2018-12-15T00:41:34.500Z,23.30
2018-12-15T00:42:34.490Z,22.60
2018-12-15T00:43:34.480Z,25.10
2018-12-15T00:44:34.478Z,21.80
2018-12-15T00:45:34.456Z,21.20
2018-12-15T00:46:34.444Z,22.30
2018-12-15T00:47:34.434Z,22.90
2018-12-15T00:48:34.424Z,21.60
2018-12-15T00:49:34.808Z,23.60
2018-12-15T00:50:34.401Z,23.50
2018-12-15T00:51:34.390Z,21.20
2018-12-15T00:52:34.379Z,20.70
2018-12-15T00:53:34.365Z,22.10
2018-12-15T00:54:34.369Z,24.50
2018-12-15T00:55:34.350Z,22.80
2018-12-15T00:56:34.338Z,23.00
2018-12-15T00:57:34.328Z,23.30
2018-12-15T00:58:34.316Z,22.10
2018-12-15T00:59:34.315Z,20.00
2018-12-15T01:00:34.292Z,22.80
2018-12-15T01:01:34.286Z,22.10
2018-12-15T01:02:34.275Z,20.60
2018-12-15T01:03:34.263Z,22.20
2018-12-15T01:04:34.260Z,21.30
2018-12-15T01:05:34.257Z,20.80
2018-12-15T01:06:34.228Z,20.00
2018-12-15T01:07:35.229Z,22.50
2018-12-15T01:08:34.205Z,20.30
2018-12-15T01:09:34.204Z,22.70
2018-12-15T01:10:34.185Z,19.90
2018-12-15T01:11:34.173Z,22.90
2018-12-15T01:12:34.162Z,20.20
2018-12-15T01:13:34.151Z,21.60
2018-12-15T01:14:34.797Z,24.20
2018-12-15T01:15:34.130Z,20.50
2018-12-15T01:16:34.118Z,21.00
2018-12-15T01:17:34.106Z,21.60
2018-12-15T01:18:34.099Z,22.60
2018-12-15T01:19:34.083Z,26.00
2018-12-15T01:20:34.083Z,21.50
2018-12-15T01:21:34.062Z,22.30
2018-12-15T01:22:34.052Z,22.30
2018-12-15T01:23:34.040Z,23.40
2018-12-15T01:24:34.029Z,24.60
2018-12-15T01:25:34.030Z,22.80
2018-12-15T01:26:34.008Z,22.70
2018-12-15T01:27:33.998Z,23.20
2018-12-15T01:28:33.987Z,25.50
2018-12-15T01:29:33.976Z,23.20
2018-12-15T01:30:33.981Z,24.60
2018-12-15T01:31:33.953Z,23.30
2018-12-15T01:32:33.941Z,21.50
2018-12-15T01:33:33.931Z,21.30
2018-12-15T01:34:33.922Z,21.10
2018-12-15T01:35:33.926Z,24.60
2018-12-15T01:36:33.933Z,23.60
2018-12-15T01:37:33.888Z,22.20
2018-12-15T01:38:33.877Z,22.70
2018-12-15T01:39:33.868Z,21.70
2018-12-15T01:40:33.865Z,21.10
2018-12-15T01:41:33.843Z,20.50
2018-12-15T01:42:33.833Z,22.50
2018-12-15T01:43:33.823Z,20.00
2018-12-15T01:44:33.810Z,24.40
2018-12-15T01:45:33.827Z,21.40
2018-12-15T01:46:33.788Z,19.90
2018-12-15T01:47:33.777Z,21.00
2018-12-15T01:48:33.766Z,22.50
2018-12-15T01:49:33.757Z,22.50
2018-12-15T01:50:33.748Z,20.80
2018-12-15T01:51:33.745Z,23.20
2018-12-15T01:52:33.723Z,25.70
2018-12-15T01:53:33.712Z,20.50
2018-12-15T01:54:33.701Z,22.60
2018-12-15T01:55:33.690Z,25.00
2018-12-15T01:56:33.691Z,24.90
2018-12-15T01:57:33.667Z,23.00
2018-12-15T01:58:33.658Z,21.50
2018-12-15T01:59:33.648Z,23.10
2018-12-15T02:00:33.636Z,23.40
2018-12-15T02:01:33.636Z,23.80
2018-12-15T02:02:33.613Z,22.40
2018-12-15T02:03:33.608Z,22.40
2018-12-15T02:04:33.592Z,22.30
2018-12-15T02:05:33.581Z,22.20
2018-12-15T02:06:33.581Z,22.30
2018-12-15T02:07:33.559Z,22.10
2018-12-15T02:08:33.548Z,19.10
2018-12-15T02:09:33.537Z,26.00
2018-12-15T02:10:33.529Z,23.00
2018-12-15T02:11:33.528Z,21.40
2018-12-15T02:12:33.504Z,20.00
2018-12-15T02:13:33.497Z,20.70
2018-12-15T02:14:33.487Z,21.10
2018-12-15T02:15:33.476Z,19.60
2018-12-15T02:16:33.471Z,18.40
2018-12-15T02:17:33.879Z,20.00
2018-12-15T02:18:33.441Z,17.80
2018-12-15T02:19:33.429Z,18.60
2018-12-15T02:20:33.417Z,17.20
2018-12-15T02:21:33.417Z,17.70
2018-12-15T02:22:33.394Z,19.60
2018-12-15T02:23:33.386Z,18.40
2018-12-15T02:24:33.372Z,18.30
2018-12-15T02:25:33.362Z,18.50
2018-12-15T02:26:33.365Z,18.00
2018-12-15T02:27:33.341Z,19.80
2018-12-15T02:28:33.328Z,19.20
2018-12-15T02:29:33.319Z,18.80
2018-12-15T02:30:33.306Z,18.40
2018-12-15T02:31:33.308Z,16.70
2018-12-15T02:32:33.286Z,16.70
2018-12-15T02:33:33.274Z,16.90
2018-12-15T02:34:33.269Z,16.40
2018-12-15T02:35:33.254Z,17.50
2018-12-15T02:36:33.241Z,15.50
2018-12-15T02:37:33.243Z,19.00
2018-12-15T02:38:33.221Z,18.20
2018-12-15T02:39:33.209Z,18.90
2018-12-15T02:40:33.200Z,18.40
2018-12-15T02:41:33.188Z,17.20
2018-12-15T02:42:33.189Z,17.10
2018-12-15T02:43:33.165Z,16.70
2018-12-15T02:44:33.155Z,17.70
2018-12-15T02:45:33.143Z,15.90
2018-12-15T02:46:33.139Z,16.30
2018-12-15T02:47:33.134Z,17.70
2018-12-15T02:48:33.111Z,16.70
2018-12-15T02:49:33.101Z,14.20
2018-12-15T02:50:33.097Z,14.80
2018-12-15T02:51:33.080Z,13.80
2018-12-15T02:52:33.078Z,13.70
2018-12-15T02:53:33.057Z,14.80
2018-12-15T02:54:33.058Z,12.30
2018-12-15T02:55:33.042Z,12.50
2018-12-15T02:56:33.023Z,13.40
2018-12-15T02:57:33.023Z,13.70
2018-12-15T02:58:33.001Z,14.30
2018-12-15T02:59:32.995Z,12.40
2018-12-15T03:00:32.980Z,13.00
2018-12-15T03:01:32.974Z,13.00
2018-12-15T03:02:32.981Z,11.30
2018-12-15T03:03:32.949Z,12.10
2018-12-15T03:04:32.936Z,11.60
2018-12-15T03:05:32.926Z,11.80
2018-12-15T03:06:32.914Z,11.60
2018-12-15T03:07:32.915Z,11.60
2018-12-15T03:08:32.894Z,11.70
2018-12-15T03:09:32.889Z,10.80
2018-12-15T03:10:32.872Z,12.80
2018-12-15T03:11:32.861Z,12.70
2018-12-15T03:12:32.861Z,10.50
2018-12-15T03:13:32.839Z,13.00
2018-12-15T03:14:32.829Z,9.40
2018-12-15T03:15:32.816Z,11.70
2018-12-15T03:16:32.804Z,9.80
2018-12-15T03:17:32.840Z,10.00
2018-12-15T03:18:32.783Z,8.80
2018-12-15T03:19:32.772Z,11.50
2018-12-15T03:20:32.760Z,9.40
2018-12-15T03:21:32.749Z,10.60
2018-12-15T03:22:32.739Z,11.10
2018-12-15T03:23:32.741Z,12.40
2018-12-15T03:24:32.720Z,10.00
2018-12-15T03:25:32.705Z,10.60
2018-12-15T03:26:32.696Z,11.20
2018-12-15T03:27:32.691Z,10.70
2018-12-15T03:28:32.684Z,10.70
2018-12-15T03:29:32.671Z,12.30
2018-12-15T03:30:32.669Z,11.50
2018-12-15T03:31:34.356Z,11.40
2018-12-15T03:32:32.639Z,11.20
2018-12-15T03:33:32.627Z,11.90
2018-12-15T03:34:32.609Z,9.70
2018-12-15T03:35:32.602Z,11.50
2018-12-15T03:36:32.586Z,10.30
2018-12-15T03:37:32.574Z,10.70
2018-12-15T03:38:32.574Z,10.70
2018-12-15T03:39:32.553Z,11.70
2018-12-15T03:40:32.540Z,11.10
2018-12-15T03:41:32.531Z,11.10
2018-12-15T03:42:32.518Z,10.10
2018-12-15T03:43:32.520Z,10.40
2018-12-15T03:44:32.503Z,11.30
2018-12-15T03:45:32.490Z,10.90
2018-12-15T03:46:32.479Z,12.70
2018-12-15T03:47:32.471Z,11.70
2018-12-15T03:48:32.471Z,11.80
2018-12-15T03:49:32.446Z,12.00
2018-12-15T03:50:32.433Z,12.80
2018-12-15T03:51:32.423Z,13.10
2018-12-15T03:52:32.411Z,11.60
2018-12-15T03:53:32.412Z,15.80
2018-12-15T03:54:32.391Z,13.50
2018-12-15T03:55:32.378Z,12.10
2018-12-15T03:56:32.366Z,13.50
2018-12-15T03:57:32.354Z,12.60
2018-12-15T03:58:32.359Z,13.50
2018-12-15T03:59:32.335Z,12.20
2018-12-15T04:00:32.323Z,14.60
2018-12-15T04:01:32.319Z,13.40
2018-12-15T04:02:32.304Z,13.10
2018-12-15T04:03:32.306Z,14.50
2018-12-15T04:04:32.285Z,12.90
2018-12-15T04:05:32.271Z,12.60
2018-12-15T04:06:32.262Z,14.20
2018-12-15T04:07:32.250Z,13.90
2018-12-15T04:08:32.251Z,14.40
2018-12-15T04:09:32.228Z,14.20
2018-12-15T04:10:32.215Z,14.80
2018-12-15T04:11:32.204Z,13.90
2018-12-15T04:12:32.189Z,12.30
2018-12-15T04:13:32.180Z,14.20
2018-12-15T04:14:32.181Z,14.50
2018-12-15T04:15:32.161Z,14.20
2018-12-15T04:16:32.149Z,14.20
2018-12-15T04:17:32.137Z,15.70
2018-12-15T04:18:32.126Z,15.70
2018-12-15T04:19:32.126Z,14.90
2018-12-15T04:20:32.106Z,15.40
2018-12-15T04:21:32.100Z,16.80
2018-12-15T04:22:32.086Z,15.40
2018-12-15T04:23:32.070Z,15.00
2018-12-15T04:24:32.074Z,14.40
2018-12-15T04:25:32.050Z,15.50
2018-12-15T04:26:32.043Z,16.70
2018-12-15T04:27:32.031Z,14.60
2018-12-15T04:28:32.022Z,13.40
2018-12-15T04:29:32.018Z,17.70
2018-12-15T04:30:31.996Z,14.30
2018-12-15T04:31:31.987Z,16.60
2018-12-15T04:32:31.975Z,17.20
2018-12-15T04:33:31.964Z,16.70
2018-12-15T04:34:31.972Z,14.90
2018-12-15T04:35:31.941Z,16.90
2018-12-15T04:36:31.930Z,18.00
2018-12-15T04:37:31.919Z,15.10
2018-12-15T04:38:31.910Z,15.30
2018-12-15T04:39:31.909Z,16.10
2018-12-15T04:40:31.886Z,15.80
2018-12-15T04:41:31.875Z,16.50
2018-12-15T04:42:31.865Z,14.90
2018-12-15T04:43:31.856Z,15.70
2018-12-15T04:44:31.856Z,15.40
2018-12-15T04:45:31.832Z,16.30
2018-12-15T04:46:31.823Z,16.00
2018-12-15T04:47:31.813Z,16.00
2018-12-15T04:48:31.800Z,16.50
2018-12-15T04:49:31.799Z,15.60
2018-12-15T04:50:31.777Z,16.10
2018-12-15T04:51:31.769Z,17.00
2018-12-15T04:52:31.758Z,15.30
2018-12-15T04:53:31.746Z,16.70
2018-12-15T04:54:31.748Z,17.10
2018-12-15T04:55:31.724Z,16.80
2018-12-15T04:56:31.712Z,17.20
2018-12-15T04:57:31.705Z,16.70
2018-12-15T04:58:31.693Z,17.00
2018-12-15T04:59:31.691Z,13.70
2018-12-15T05:00:31.678Z,15.50
2018-12-15T05:01:31.659Z,15.80
2018-12-15T05:02:31.646Z,16.20
2018-12-15T05:03:31.634Z,15.40
2018-12-15T05:04:31.664Z,15.00
2018-12-15T05:05:31.613Z,14.80
2018-12-15T05:06:31.610Z,18.90
2018-12-15T05:07:31.592Z,15.60
2018-12-15T05:08:31.580Z,14.30
2018-12-15T05:09:31.569Z,16.10
2018-12-15T05:10:31.572Z,14.90
2018-12-15T05:11:31.547Z,16.60
2018-12-15T05:12:31.539Z,16.80
2018-12-15T05:13:31.533Z,16.70
2018-12-15T05:14:31.517Z,14.30
2018-12-15T05:15:31.515Z,15.40
2018-12-15T05:16:31.493Z,15.90
2018-12-15T05:17:31.483Z,16.60
2018-12-15T05:18:31.471Z,13.20
2018-12-15T05:19:31.462Z,16.60
2018-12-15T05:20:31.460Z,15.40
2018-12-15T05:21:31.435Z,13.60
2018-12-15T05:22:31.427Z,14.30
2018-12-15T05:23:31.424Z,14.90
2018-12-15T05:24:31.410Z,17.30
2018-12-15T05:25:31.409Z,13.20
2018-12-15T05:26:31.384Z,15.80
2018-12-15T05:27:31.373Z,14.70
2018-12-15T05:28:31.362Z,14.10
2018-12-15T05:29:33.492Z,13.40
2018-12-15T05:30:31.355Z,14.70
2018-12-15T05:31:31.330Z,14.90
2018-12-15T05:32:31.322Z,14.40
2018-12-15T05:33:31.308Z,13.40
2018-12-15T05:34:31.298Z,15.60
2018-12-15T05:35:31.317Z,14.40
2018-12-15T05:36:31.275Z,14.20
2018-12-15T05:37:31.267Z,14.20
2018-12-15T05:38:31.258Z,14.50
2018-12-15T05:39:31.244Z,14.40
2018-12-15T05:40:31.235Z,15.30
2018-12-15T05:41:31.231Z,14.40
2018-12-15T05:42:31.208Z,17.60
2018-12-15T05:43:31.198Z,14.70
2018-12-15T05:44:31.193Z,15.20
2018-12-15T05:45:31.178Z,14.20
2018-12-15T05:46:31.176Z,16.20
2018-12-15T05:47:31.157Z,16.10
2018-12-15T05:48:31.143Z,18.30
2018-12-15T05:49:31.132Z,14.70
2018-12-15T05:50:31.121Z,15.80
2018-12-15T05:51:31.122Z,15.00
2018-12-15T05:52:31.101Z,15.20
2018-12-15T05:53:31.089Z,16.00
2018-12-15T05:54:31.081Z,15.30
2018-12-15T05:55:31.070Z,17.30
2018-12-15T05:56:31.071Z,17.20
2018-12-15T05:57:31.050Z,16.70
2018-12-15T05:58:31.039Z,16.00
2018-12-15T05:59:31.025Z,16.00
2018-12-15T06:00:31.021Z,17.00
2018-12-15T06:01:31.013Z,16.70
2018-12-15T06:02:30.992Z,14.50
2018-12-15T06:03:31.808Z,17.30
2018-12-15T06:04:30.969Z,16.00
2018-12-15T06:05:30.958Z,17.50
2018-12-15T06:06:30.964Z,17.30
2018-12-15T06:07:30.936Z,16.60
2018-12-15T06:08:30.924Z,15.60
2018-12-15T06:09:30.914Z,16.30
2018-12-15T06:10:30.901Z,17.70
2018-12-15T06:11:30.921Z,18.00
2018-12-15T06:12:30.882Z,18.10
2018-12-15T06:13:30.870Z,17.20
2018-12-15T06:14:30.861Z,16.80
2018-12-15T06:15:30.847Z,18.40
2018-12-15T06:16:30.846Z,17.10
2018-12-15T06:17:30.838Z,15.30
2018-12-15T06:18:31.743Z,16.80
2018-12-15T06:19:30.807Z,17.30
2018-12-15T06:20:30.798Z,17.40
2018-12-15T06:21:30.782Z,17.00
2018-12-15T06:22:30.784Z,20.20
2018-12-15T06:23:30.760Z,18.00
2018-12-15T06:24:30.748Z,17.20
2018-12-15T06:25:30.740Z,17.40
2018-12-15T06:26:30.728Z,16.50
2018-12-15T06:27:30.727Z,18.20
2018-12-15T06:28:30.706Z,16.20
2018-12-15T06:29:30.694Z,18.00
2018-12-15T06:30:30.684Z,19.70
2018-12-15T06:31:30.681Z,18.10
2018-12-15T06:32:30.677Z,17.40
2018-12-15T06:33:30.648Z,17.70
2018-12-15T06:34:30.641Z,20.30
2018-12-15T06:35:30.629Z,18.10
2018-12-15T06:36:30.618Z,17.00
2018-12-15T06:37:30.615Z,19.20
2018-12-15T06:38:30.598Z,18.70
2018-12-15T06:39:30.583Z,17.10
2018-12-15T06:40:30.575Z,19.30
2018-12-15T06:41:30.562Z,19.10
2018-12-15T06:42:30.589Z,18.20
2018-12-15T06:43:30.539Z,18.90
2018-12-15T06:44:30.528Z,19.50
2018-12-15T06:45:30.517Z,17.80
2018-12-15T06:46:30.505Z,22.90
2018-12-15T06:47:30.494Z,19.80
2018-12-15T06:48:30.497Z,19.40
2018-12-15T06:49:30.473Z,21.10
2018-12-15T06:50:30.461Z,18.60
2018-12-15T06:51:30.450Z,21.40
2018-12-15T06:52:30.441Z,21.40
2018-12-15T06:53:30.449Z,19.90
2018-12-15T06:54:30.417Z,19.90
2018-12-15T06:55:30.406Z,21.30
2018-12-15T06:56:30.395Z,20.80
2018-12-15T06:57:30.441Z,21.30
2018-12-15T06:58:30.383Z,21.30
2018-12-15T06:59:30.362Z,19.80
2018-12-15T07:00:30.355Z,22.60
2018-12-15T07:01:30.340Z,20.30
2018-12-15T07:02:30.330Z,20.70
2018-12-15T07:03:30.326Z,18.70
2018-12-15T07:04:30.306Z,20.20
2018-12-15T07:05:30.304Z,21.60
2018-12-15T07:06:30.290Z,21.80
2018-12-15T07:07:30.272Z,19.10
2018-12-15T07:08:30.276Z,21.30
2018-12-15T07:09:30.254Z,24.70
2018-12-15T07:10:30.239Z,22.70
2018-12-15T07:11:30.225Z,22.40
2018-12-15T07:12:30.217Z,21.30
2018-12-15T07:13:30.220Z,22.30
2018-12-15T07:14:30.196Z,22.60
2018-12-15T07:15:30.192Z,21.60
2018-12-15T07:16:30.175Z,22.10
2018-12-15T07:17:30.162Z,23.90
2018-12-15T07:18:30.164Z,22.40
2018-12-15T07:19:30.139Z,23.80
2018-12-15T07:20:30.130Z,19.50
2018-12-15T07:21:30.118Z,22.10
2018-12-15T07:22:30.109Z,20.10
2018-12-15T07:23:30.125Z,20.80
2018-12-15T07:24:30.085Z,20.60
2018-12-15T07:25:30.076Z,22.00
2018-12-15T07:26:30.065Z,20.10
2018-12-15T07:27:30.053Z,21.00
2018-12-15T07:28:30.046Z,21.40
2018-12-15T07:29:30.040Z,23.40
2018-12-15T07:30:30.019Z,23.60
2018-12-15T07:31:30.010Z,24.20
2018-12-15T07:32:30.002Z,21.90
2018-12-15T07:33:29.987Z,22.10
2018-12-15T07:34:29.989Z,22.50
2018-12-15T07:35:29.966Z,24.90
2018-12-15T07:36:29.957Z,21.80
2018-12-15T07:37:29.941Z,22.10
2018-12-15T07:38:29.932Z,23.80
2018-12-15T07:39:29.933Z,24.30
2018-12-15T07:40:29.911Z,22.90
2018-12-15T07:41:29.897Z,24.60
2018-12-15T07:42:29.885Z,23.10
2018-12-15T07:43:29.874Z,26.10
2018-12-15T07:44:29.877Z,25.60
2018-12-15T07:45:29.852Z,22.00
2018-12-15T07:46:29.841Z,23.90
2018-12-15T07:47:29.829Z,23.10
2018-12-15T07:48:29.818Z,21.20
2018-12-15T07:49:29.846Z,22.50
2018-12-15T07:50:29.796Z,23.70
2018-12-15T07:51:29.785Z,27.30
2018-12-15T07:52:29.774Z,23.40
2018-12-15T07:53:29.764Z,19.80
2018-12-15T07:54:29.751Z,21.90
2018-12-15T07:55:29.753Z,22.70
2018-12-15T07:56:29.731Z,20.10
2018-12-15T07:57:29.719Z,21.10
2018-12-15T07:58:29.706Z,21.80
2018-12-15T07:59:29.695Z,20.50
2018-12-15T08:00:29.696Z,20.90
2018-12-15T08:01:29.674Z,21.50
2018-12-15T08:02:29.673Z,18.30
2018-12-15T08:03:29.651Z,21.80
2018-12-15T08:04:29.640Z,21.50
2018-12-15T08:05:29.643Z,21.40
2018-12-15T08:06:29.620Z,22.20
2018-12-15T08:07:29.609Z,18.40
2018-12-15T08:08:29.595Z,21.20
2018-12-15T08:09:29.585Z,19.80
2018-12-15T08:10:29.587Z,18.90
2018-12-15T08:11:29.572Z,19.40
2018-12-15T08:12:29.552Z,20.10
2018-12-15T08:13:29.548Z,21.50
2018-12-15T08:14:29.531Z,19.80
2018-12-15T08:15:29.530Z,21.00
2018-12-15T08:16:29.508Z,21.20
2018-12-15T08:17:29.495Z,20.90
2018-12-15T08:18:29.486Z,19.00
2018-12-15T08:19:29.476Z,18.90
2018-12-15T08:20:29.486Z,19.20
2018-12-15T08:21:29.453Z,18.50
2018-12-15T08:22:29.439Z,18.00
2018-12-15T08:23:29.430Z,20.90
2018-12-15T08:24:29.420Z,18.90
2018-12-15T08:25:29.423Z,20.80
2018-12-15T08:26:29.397Z,16.50
2018-12-15T08:27:29.389Z,17.20
2018-12-15T08:28:29.374Z,19.80
2018-12-15T08:29:29.363Z,18.60
2018-12-15T08:30:29.362Z,20.00
2018-12-15T08:31:29.340Z,18.90
2018-12-15T08:32:29.330Z,17.00
2018-12-15T08:33:29.319Z,18.00
2018-12-15T08:34:29.307Z,19.30
2018-12-15T08:35:29.334Z,17.80
2018-12-15T08:36:29.285Z,18.30
2018-12-15T08:37:29.275Z,17.50
2018-12-15T08:38:29.308Z,17.40
2018-12-15T08:39:29.249Z,18.50
2018-12-15T08:40:29.245Z,19.90
2018-12-15T08:41:29.235Z,22.60
2018-12-15T08:42:29.215Z,18.30
2018-12-15T08:43:29.204Z,18.70
2018-12-15T08:44:29.195Z,17.60
2018-12-15T08:45:29.182Z,20.20
2018-12-15T08:46:29.184Z,15.80
2018-12-15T08:47:29.160Z,18.30
2018-12-15T08:48:29.148Z,17.80
2018-12-15T08:49:29.138Z,19.50
2018-12-15T08:50:29.127Z,17.80
2018-12-15T08:51:29.129Z,17.00
2018-12-15T08:52:29.104Z,16.80
2018-12-15T08:53:29.096Z,18.30
2018-12-15T08:54:29.118Z,18.50
2018-12-15T08:55:29.074Z,18.30
2018-12-15T08:56:29.072Z,18.80
2018-12-15T08:57:29.052Z,17.10
2018-12-15T08:58:29.040Z,20.60
2018-12-15T08:59:29.031Z,30.10
2018-12-15T09:00:29.016Z,20.50
2018-12-15T09:01:29.332Z,20.80
2018-12-15T09:02:28.994Z,19.40
2018-12-15T09:03:28.982Z,18.00
2018-12-15T09:04:28.974Z,19.00
2018-12-15T09:05:28.963Z,17.60
2018-12-15T09:06:28.962Z,19.10
2018-12-15T09:07:28.939Z,17.70
2018-12-15T09:08:28.929Z,19.30
2018-12-15T09:09:28.917Z,17.90
2018-12-15T09:10:28.905Z,17.20
2018-12-15T09:11:28.905Z,17.90
2018-12-15T09:12:28.883Z,21.00
2018-12-15T09:13:28.874Z,17.80
2018-12-15T09:14:28.861Z,18.40
2018-12-15T09:15:28.858Z,20.10
2018-12-15T09:16:28.879Z,18.20
2018-12-15T09:17:28.827Z,16.90
2018-12-15T09:18:28.815Z,17.50
2018-12-15T09:19:28.804Z,18.40
2018-12-15T09:20:28.794Z,19.20
2018-12-15T09:21:28.782Z,16.90
2018-12-15T09:22:28.785Z,20.00
2018-12-15T09:23:28.761Z,18.00
2018-12-15T09:24:28.748Z,19.80
2018-12-15T09:25:28.739Z,18.10
2018-12-15T09:26:28.728Z,18.70
2018-12-15T09:27:29.312Z,22.10
2018-12-15T09:28:28.707Z,19.60
2018-12-15T09:29:28.694Z,21.50
2018-12-15T09:30:28.685Z,19.70
2018-12-15T09:31:28.675Z,18.50
2018-12-15T09:32:28.672Z,19.90
2018-12-15T09:33:28.653Z,19.00
2018-12-15T09:34:28.642Z,22.60
2018-12-15T09:35:28.629Z,22.10
2018-12-15T09:36:28.620Z,24.00
2018-12-15T09:37:28.620Z,24.60
2018-12-15T09:38:28.598Z,21.40
2018-12-15T09:39:28.588Z,23.60
2018-12-15T09:40:28.579Z,20.60
2018-12-15T09:41:28.562Z,21.40
2018-12-15T09:42:28.562Z,24.40
2018-12-15T09:43:28.541Z,22.80
2018-12-15T09:44:28.533Z,23.60
2018-12-15T09:45:28.519Z,23.50
2018-12-15T09:46:28.509Z,23.00
2018-12-15T09:47:28.526Z,22.30
2018-12-15T09:48:28.486Z,23.30
2018-12-15T09:49:28.480Z,22.80
2018-12-15T09:50:28.465Z,21.80
2018-12-15T09:51:28.454Z,21.80
2018-12-15T09:52:28.442Z,21.80
2018-12-15T09:53:28.441Z,21.50
2018-12-15T09:54:28.423Z,23.90
2018-12-15T09:55:28.418Z,23.50
2018-12-15T09:56:28.398Z,23.10
2018-12-15T09:57:28.387Z,19.60
2018-12-15T09:58:28.390Z,20.30
2018-12-15T09:59:28.364Z,23.90
2018-12-15T10:00:28.356Z,23.30
2018-12-15T10:01:28.348Z,25.00
2018-12-15T10:02:28.333Z,24.10
2018-12-15T10:03:28.331Z,23.00
2018-12-15T10:04:28.315Z,25.10
2018-12-15T10:05:28.304Z,24.00
2018-12-15T10:06:28.294Z,21.90
2018-12-15T10:07:28.278Z,20.80
2018-12-15T10:08:28.277Z,24.20
2018-12-15T10:09:28.254Z,22.40
2018-12-15T10:10:28.243Z,22.30
2018-12-15T10:11:28.236Z,22.80
2018-12-15T10:12:28.224Z,23.70
2018-12-15T10:13:28.223Z,22.50
2018-12-15T10:14:28.200Z,23.30
2018-12-15T10:15:28.191Z,23.50
2018-12-15T10:16:28.183Z,22.00
2018-12-15T10:17:28.165Z,22.80
2018-12-15T10:18:28.810Z,24.70
2018-12-15T10:19:28.142Z,27.40
2018-12-15T10:20:28.132Z,28.00
2018-12-15T10:21:28.121Z,31.10
2018-12-15T10:22:28.110Z,23.70
2018-12-15T10:23:28.134Z,22.20
2018-12-15T10:24:28.088Z,19.80
2018-12-15T10:25:28.081Z,22.40
2018-12-15T10:26:28.067Z,23.50
2018-12-15T10:27:28.054Z,21.60
2018-12-15T10:28:28.053Z,21.50
2018-12-15T10:29:28.046Z,23.70
2018-12-15T10:30:28.023Z,22.10
2018-12-15T10:31:28.009Z,23.70
2018-12-15T10:32:28.005Z,21.30
2018-12-15T10:33:27.988Z,21.50
2018-12-15T10:34:27.988Z,22.70
2018-12-15T10:35:27.967Z,22.80
2018-12-15T10:36:27.956Z,21.50
2018-12-15T10:37:27.942Z,21.60
2018-12-15T10:38:27.932Z,26.70
2018-12-15T10:39:27.940Z,22.50
2018-12-15T10:40:27.908Z,25.20
2018-12-15T10:41:27.899Z,23.50
2018-12-15T10:42:27.889Z,20.10
2018-12-15T10:43:27.875Z,24.50
2018-12-15T10:44:27.876Z,23.50
2018-12-15T10:45:27.857Z,22.30
2018-12-15T10:46:27.844Z,22.90
2018-12-15T10:47:27.833Z,24.60
2018-12-15T10:48:27.821Z,23.60
2018-12-15T10:49:30.702Z,24.10
2018-12-15T10:50:27.798Z,24.60
2018-12-15T10:51:27.795Z,21.90
2018-12-15T10:52:27.782Z,24.10
2018-12-15T10:53:28.314Z,23.60
2018-12-15T10:54:27.765Z,26.60
2018-12-15T10:55:27.762Z,26.50
2018-12-15T10:56:28.311Z,23.10
2018-12-15T10:57:27.721Z,24.40
2018-12-15T10:58:27.710Z,24.90
2018-12-15T10:59:27.711Z,27.60
2018-12-15T11:00:27.689Z,23.30
2018-12-15T11:01:27.677Z,24.60
2018-12-15T11:02:27.666Z,25.10
2018-12-15T11:03:27.658Z,25.10
2018-12-15T11:04:27.675Z,24.90
2018-12-15T11:05:27.635Z,25.50
2018-12-15T11:06:27.622Z,23.70
2018-12-15T11:07:27.610Z,24.70
2018-12-15T11:08:27.600Z,26.90
2018-12-15T11:09:27.596Z,26.40
2018-12-15T11:10:27.592Z,24.00
2018-12-15T11:11:27.568Z,25.40
2018-12-15T11:12:27.556Z,25.20
2018-12-15T11:13:27.546Z,23.60
2018-12-15T11:14:27.534Z,23.70
2018-12-15T11:15:27.537Z,23.40
2018-12-15T11:16:27.512Z,22.90
2018-12-15T11:17:27.502Z,24.90
2018-12-15T11:18:27.489Z,27.00
2018-12-15T11:19:27.483Z,26.10
2018-12-15T11:20:28.313Z,24.40
2018-12-15T11:21:27.458Z,25.20
2018-12-15T11:22:27.447Z,27.50
2018-12-15T11:23:27.435Z,28.30
2018-12-15T11:24:27.426Z,32.60
2018-12-15T11:25:27.424Z,26.70
2018-12-15T11:26:27.403Z,32.80
2018-12-15T11:27:27.392Z,36.40
2018-12-15T11:28:27.380Z,39.20
2018-12-15T11:29:27.370Z,26.60
2018-12-15T11:30:27.824Z,25.10
2018-12-15T11:31:27.347Z,23.90
2018-12-15T11:32:27.336Z,27.20
2018-12-15T11:33:27.326Z,24.20
2018-12-15T11:34:27.317Z,28.20
2018-12-15T11:35:27.316Z,26.10
2018-12-15T11:36:27.294Z,26.20
2018-12-15T11:37:27.291Z,25.10
2018-12-15T11:38:27.270Z,26.90
2018-12-15T11:39:27.260Z,26.00
2018-12-15T11:40:27.261Z,26.10
2018-12-15T11:41:27.281Z,23.50
2018-12-15T11:42:27.229Z,27.10
2018-12-15T11:43:27.227Z,25.50
2018-12-15T11:44:27.205Z,30.10
2018-12-15T11:45:27.206Z,26.30
2018-12-15T11:46:27.184Z,24.40
2018-12-15T11:47:27.172Z,25.60
2018-12-15T11:48:27.162Z,24.90
2018-12-15T11:49:27.150Z,27.00
2018-12-15T11:50:27.322Z,29.90
2018-12-15T11:51:27.128Z,29.50
2018-12-15T11:52:27.118Z,33.00
2018-12-15T11:53:27.105Z,26.80
2018-12-15T11:54:27.114Z,25.30
2018-12-15T11:55:27.083Z,28.00
2018-12-15T11:56:27.088Z,25.80
2018-12-15T11:57:27.062Z,23.90
2018-12-15T11:58:27.050Z,24.70
2018-12-15T11:59:27.055Z,25.00
2018-12-15T12:00:27.028Z,26.30
2018-12-15T12:01:27.030Z,24.20
2018-12-15T12:02:31.867Z,26.20
2018-12-15T12:03:27.997Z,26.10
2018-12-15T12:04:26.989Z,24.40
2018-12-15T12:05:26.973Z,24.70
2018-12-15T12:06:26.976Z,24.20
2018-12-15T12:07:26.953Z,25.30
2018-12-15T12:08:26.940Z,25.40
2018-12-15T12:09:26.928Z,25.50
2018-12-15T12:10:26.919Z,27.10
2018-12-15T12:11:27.815Z,25.30
2018-12-15T12:12:26.894Z,25.30
2018-12-15T12:13:26.883Z,26.40
2018-12-15T12:14:26.874Z,26.80
2018-12-15T12:15:26.865Z,27.10
2018-12-15T12:16:26.867Z,26.80
2018-12-15T12:17:26.846Z,24.70
2018-12-15T12:18:26.829Z,25.80
2018-12-15T12:19:26.818Z,27.20
2018-12-15T12:20:26.810Z,28.90
2018-12-15T12:21:26.809Z,26.40
2018-12-15T12:22:26.857Z,26.50
2018-12-15T12:23:26.773Z,24.40
2018-12-15T12:24:26.763Z,28.10
2018-12-15T12:25:26.753Z,27.90
2018-12-15T12:26:26.751Z,25.40
2018-12-15T12:27:26.728Z,27.70
2018-12-15T12:28:26.723Z,27.10
2018-12-15T12:29:26.705Z,29.40
2018-12-15T12:30:26.694Z,27.90
2018-12-15T12:31:26.696Z,26.40
2018-12-15T12:32:26.673Z,28.10
2018-12-15T12:33:26.666Z,29.50
2018-12-15T12:34:26.651Z,31.50
2018-12-15T12:35:26.640Z,27.90
2018-12-15T12:36:26.633Z,26.70
2018-12-15T12:37:26.631Z,26.40
2018-12-15T12:38:26.640Z,26.40
2018-12-15T12:39:26.595Z,26.70
2018-12-15T12:40:26.601Z,24.40
2018-12-15T12:41:26.575Z,28.60
2018-12-15T12:42:26.572Z,24.40
2018-12-15T12:43:26.549Z,27.70
2018-12-15T12:44:26.543Z,29.30
2018-12-15T12:45:26.527Z,26.90
2018-12-15T12:46:26.580Z,26.00
2018-12-15T12:47:26.506Z,26.00
2018-12-15T12:48:26.494Z,26.90
2018-12-15T12:49:26.490Z,25.30
2018-12-15T12:50:27.316Z,26.30
2018-12-15T12:51:26.459Z,27.00
2018-12-15T12:52:26.463Z,26.30